Portada
METAR-TAF:

METAR-TAF

Aeropuertos :

Iowa City Municipal Airport

Iowa City, Iowa, Estados Unidos

latitud: 41-37-58N, longitud: 091-32-35W, altitud: 203 m

Observación

El informe se hizo hace 50 minutos, a las 00:52 UTC
Viento 3 kt del noroeste
Temperatura 19°C
Humedad 88%
Presión 1014 hPa
Visibilidad: 16.1 km
Cielo nuboso a una altura de 11000 ft

METAR: KIOW 290052Z AUTO 31003KT 10SM BKN110 19/17 A2994 RMK AO2 SLP134 T01890172

Hora: 20:42 (01:42 UTC)


TAF: falta

Observaciones y pronósticos meteorológicos de más de 4000 aeropuertos (mensajes METAR y TAF).

Los puntos amarillos y rojos representan las estaciones disponibles.

Ponga el ratón en el punto deseado para ver el nombre de la estación.

Haga clic para ver las observaciones y los pronósticos meteorológicos.

Para cambiar el mapa : haga clic en los botones verdes con una cruz de color negro para hacer un zoom, en el botón verde con un guión para alejar o en las flechas verdes para mapas adyacentes.


METAR-TAF: